Time;durP1;ratioP1;P1;durP2;ratioP2;P2;SDS_P1;SDS_P2;PMS_P1;PMS_P2;Temp;Humidity;BMP_temperature;BMP_pressure;BME280_temperature;BME280_humidity;BME280_pressure;Samples;Min_cycle;Max_cycle;Signal;HPM_P1;HPM_P2
2024/01/08 00:00:34;;;;;;;6.88;6.40;;;;;;;;;;5092406;28;20200;-64
2024/01/08 00:03:02;;;;;;;6.90;6.60;;;;;;;;;;5092220;28;20203;-64
2024/01/08 00:05:30;;;;;;;6.90;6.50;;;;;;;;;;5092231;28;20682;-64
2024/01/08 00:07:57;;;;;;;7.32;6.93;;;;;;;;;;5093163;28;20654;-64
2024/01/08 00:10:26;;;;;;;7.25;6.80;;;;;;;;;;5093247;28;20203;-64
2024/01/08 00:12:55;;;;;;;7.60;7.20;;;;;;;;;;5094320;28;20234;-64
2024/01/08 00:15:23;;;;;;;7.47;7.07;;;;;;;;;;5093579;28;20215;-64
2024/01/08 00:17:52;;;;;;;7.05;6.65;;;;;;;;;;5093586;28;20195;-64
2024/01/08 00:20:20;;;;;;;7.50;7.15;;;;;;;;;;5093553;28;20203;-64
2024/01/08 00:22:48;;;;;;;7.10;6.80;;;;;;;;;;5093208;28;20203;-64
2024/01/08 00:25:16;;;;;;;7.65;7.13;;;;;;;;;;5072927;28;20207;-64
2024/01/08 00:27:44;;;;;;;7.05;6.60;;;;;;;;;;5092818;28;20564;-64
2024/01/08 00:30:14;;;;;;;6.82;6.53;;;;;;;;;;5092380;28;20203;-64
2024/01/08 00:32:42;;;;;;;7.47;7.07;;;;;;;;;;5092692;28;20680;-64
2024/01/08 00:35:11;;;;;;;6.60;6.30;;;;;;;;;;5090744;28;20222;-66
2024/01/08 00:37:40;;;;;;;7.82;7.30;;;;;;;;;;5092835;28;20199;-64
2024/01/08 00:40:09;;;;;;;7.57;7.25;;;;;;;;;;5093084;28;20229;-64
2024/01/08 00:42:38;;;;;;;8.63;8.02;;;;;;;;;;5094364;28;20187;-64
2024/01/08 00:45:07;;;;;;;8.02;7.53;;;;;;;;;;5093187;28;20313;-64
2024/01/08 00:47:36;;;;;;;7.40;7.10;;;;;;;;;;5093335;28;20551;-64
2024/01/08 00:50:05;;;;;;;7.90;7.53;;;;;;;;;;5092987;28;20214;-64
2024/01/08 00:52:33;;;;;;;7.20;6.80;;;;;;;;;;5074694;28;20223;-64
2024/01/08 00:55:04;;;;;;;7.38;7.07;;;;;;;;;;5093179;28;20246;-64
2024/01/08 00:57:33;;;;;;;7.43;7.00;;;;;;;;;;5074528;28;20213;-64
2024/01/08 01:00:01;;;;;;;8.00;7.50;;;;;;;;;;5092941;28;20203;-65
2024/01/08 01:02:29;;;;;;;7.40;7.00;;;;;;;;;;5089851;28;20221;-64
2024/01/08 01:04:59;;;;;;;7.10;6.80;;;;;;;;;;5092054;28;20202;-65
2024/01/08 01:07:27;;;;;;;7.03;6.63;;;;;;;;;;5091294;28;20196;-64
2024/01/08 01:09:56;;;;;;;7.57;7.18;;;;;;;;;;5091475;28;20572;-64
2024/01/08 01:12:24;;;;;;;6.72;6.43;;;;;;;;;;5090079;28;20203;-64
2024/01/08 01:14:52;;;;;;;7.60;7.10;;;;;;;;;;5091896;28;20524;-64
2024/01/08 01:17:20;;;;;;;7.50;7.20;;;;;;;;;;5073748;28;20566;-64
2024/01/08 01:19:48;;;;;;;7.13;6.72;;;;;;;;;;5092334;28;20211;-64
2024/01/08 01:22:18;;;;;;;7.38;6.97;;;;;;;;;;5091368;28;20199;-64
2024/01/08 01:24:46;;;;;;;7.20;6.90;;;;;;;;;;5093026;28;20192;-64
2024/01/08 01:27:15;;;;;;;7.82;7.10;;;;;;;;;;5091034;28;20234;-64
2024/01/08 01:29:43;;;;;;;7.00;6.75;;;;;;;;;;5093174;28;20225;-64
2024/01/08 01:32:11;;;;;;;7.60;7.10;;;;;;;;;;5091448;28;20584;-67
2024/01/08 01:34:39;;;;;;;7.32;6.97;;;;;;;;;;5092780;28;20244;-65
2024/01/08 01:37:07;;;;;;;7.80;7.32;;;;;;;;;;5091692;28;20199;-66
2024/01/08 01:39:37;;;;;;;6.70;6.40;;;;;;;;;;5092825;28;20255;-64
2024/01/08 01:42:05;;;;;;;6.68;6.38;;;;;;;;;;5090984;28;20231;-64
2024/01/08 01:44:33;;;;;;;6.68;6.38;;;;;;;;;;5092768;28;20225;-64
2024/01/08 01:47:02;;;;;;;7.55;7.05;;;;;;;;;;5090886;28;20248;-64
2024/01/08 01:49:30;;;;;;;6.95;6.65;;;;;;;;;;5092474;28;20199;-64
2024/01/08 01:51:58;;;;;;;7.95;7.55;;;;;;;;;;5090773;28;20195;-64
2024/01/08 01:54:27;;;;;;;7.10;6.65;;;;;;;;;;5089929;28;20203;-64
2024/01/08 01:56:59;;;;;;;7.55;7.20;;;;;;;;;;5082463;28;20242;-64
2024/01/08 01:59:28;;;;;;;6.80;6.60;;;;;;;;;;5092278;28;20202;-64
2024/01/08 02:01:57;;;;;;;7.55;7.15;;;;;;;;;;5090701;28;20191;-64
2024/01/08 02:04:26;;;;;;;7.93;7.53;;;;;;;;;;5083243;28;20214;-64
2024/01/08 02:06:56;;;;;;;8.02;7.53;;;;;;;;;;5067737;28;20202;-64
2024/01/08 02:09:24;;;;;;;7.15;6.95;;;;;;;;;;5091943;28;20232;-64
2024/01/08 02:11:52;;;;;;;7.43;6.93;;;;;;;;;;5091193;28;20267;-64
2024/01/08 02:14:22;;;;;;;7.40;7.00;;;;;;;;;;5091761;28;20207;-64
2024/01/08 02:16:50;;;;;;;6.70;6.40;;;;;;;;;;5091037;28;20217;-64
2024/01/08 02:19:18;;;;;;;7.68;7.28;;;;;;;;;;5091294;28;20205;-64
2024/01/08 02:21:46;;;;;;;7.45;6.95;;;;;;;;;;5091577;28;20205;-64
2024/01/08 02:24:16;;;;;;;7.75;7.28;;;;;;;;;;5091914;28;20197;-64
2024/01/08 02:26:44;;;;;;;7.22;6.93;;;;;;;;;;5094759;28;20259;-65
2024/01/08 02:29:12;;;;;;;6.80;6.50;;;;;;;;;;5096087;28;20209;-64
2024/01/08 02:31:41;;;;;;;7.60;7.30;;;;;;;;;;5095586;28;20195;-66
2024/01/08 02:34:09;;;;;;;6.70;6.45;;;;;;;;;;5096635;28;20203;-64
2024/01/08 02:36:37;;;;;;;7.30;6.90;;;;;;;;;;5077908;28;20237;-65
2024/01/08 02:39:05;;;;;;;7.00;6.65;;;;;;;;;;5096056;28;20236;-64
2024/01/08 02:41:35;;;;;;;6.70;6.40;;;;;;;;;;5094886;28;20234;-63
2024/01/08 02:44:03;;;;;;;7.00;6.70;;;;;;;;;;5089506;28;20230;-64
2024/01/08 02:46:32;;;;;;;7.20;6.72;;;;;;;;;;5084230;28;20214;-64
2024/01/08 02:49:00;;;;;;;8.32;7.45;;;;;;;;;;5088186;28;20207;-64
2024/01/08 02:51:28;;;;;;;7.32;6.82;;;;;;;;;;5092563;28;20236;-65
2024/01/08 02:53:56;;;;;;;7.90;7.25;;;;;;;;;;5092562;28;20568;-65
2024/01/08 02:56:25;;;;;;;7.40;7.00;;;;;;;;;;5091793;28;20222;-64
2024/01/08 02:58:54;;;;;;;7.45;7.07;;;;;;;;;;5093999;28;20679;-65
2024/01/08 03:01:23;;;;;;;7.03;6.63;;;;;;;;;;5093497;28;20220;-64
2024/01/08 03:03:51;;;;;;;7.20;6.75;;;;;;;;;;5092410;28;20211;-64
2024/01/08 03:06:19;;;;;;;7.35;6.95;;;;;;;;;;5070750;28;20210;-64
2024/01/08 03:08:47;;;;;;;6.90;6.60;;;;;;;;;;5089082;28;20205;-64
2024/01/08 03:11:16;;;;;;;7.15;6.75;;;;;;;;;;5094212;28;20419;-64
2024/01/08 03:13:44;;;;;;;7.43;7.10;;;;;;;;;;5093642;28;20214;-64
2024/01/08 03:16:14;;;;;;;7.15;6.90;;;;;;;;;;5054962;28;20224;-64
2024/01/08 03:18:42;;;;;;;7.57;6.93;;;;;;;;;;5088130;28;20203;-64
2024/01/08 03:21:10;;;;;;;6.82;6.53;;;;;;;;;;5093971;28;20680;-64
2024/01/08 03:23:38;;;;;;;7.68;7.18;;;;;;;;;;5092304;28;20217;-64
2024/01/08 03:26:06;;;;;;;6.72;6.50;;;;;;;;;;5091373;28;20200;-64
2024/01/08 03:28:35;;;;;;;6.55;6.25;;;;;;;;;;5087688;28;20211;-65
2024/01/08 03:31:03;;;;;;;6.75;6.55;;;;;;;;;;5084041;28;20558;-66
2024/01/08 03:33:32;;;;;;;6.53;6.32;;;;;;;;;;5093339;28;20203;-64
2024/01/08 03:36:00;;;;;;;6.60;6.30;;;;;;;;;;5091211;28;20220;-65
2024/01/08 03:38:29;;;;;;;6.40;6.10;;;;;;;;;;5092275;28;20207;-64
2024/01/08 03:40:57;;;;;;;7.10;6.60;;;;;;;;;;5090659;28;20288;-66
2024/01/08 03:43:25;;;;;;;6.45;6.15;;;;;;;;;;5091983;28;20211;-66
2024/01/08 03:45:53;;;;;;;5.60;5.45;;;;;;;;;;5081396;28;20223;-66
2024/01/08 03:48:22;;;;;;;6.03;5.72;;;;;;;;;;5094280;28;20218;-66
2024/01/08 03:50:52;;;;;;;6.45;6.15;;;;;;;;;;5094480;28;20569;-67
2024/01/08 03:53:20;;;;;;;6.47;6.18;;;;;;;;;;5093529;28;20207;-66
2024/01/08 03:55:49;;;;;;;5.63;5.43;;;;;;;;;;5094020;28;20551;-67
2024/01/08 03:58:17;;;;;;;6.07;5.78;;;;;;;;;;5093239;28;20204;-64
2024/01/08 04:00:45;;;;;;;5.90;5.60;;;;;;;;;;5093009;28;20203;-64
2024/01/08 04:03:14;;;;;;;7.47;6.97;;;;;;;;;;5092357;28;20207;-64
2024/01/08 04:05:42;;;;;;;6.20;6.00;;;;;;;;;;5092962;28;20256;-64
2024/01/08 04:08:12;;;;;;;8.45;7.88;;;;;;;;;;5093828;28;20213;-64
2024/01/08 04:10:40;;;;;;;6.25;5.93;;;;;;;;;;5092791;28;20209;-64
2024/01/08 04:13:08;;;;;;;6.95;6.35;;;;;;;;;;5075339;28;20214;-64
2024/01/08 04:15:36;;;;;;;6.43;6.03;;;;;;;;;;5093225;28;20205;-64
2024/01/08 04:18:05;;;;;;;6.35;6.05;;;;;;;;;;5093387;28;20211;-63
2024/01/08 04:20:33;;;;;;;6.25;6.05;;;;;;;;;;5075855;28;20572;-64
2024/01/08 04:23:01;;;;;;;6.32;6.03;;;;;;;;;;5092963;28;20203;-64
2024/01/08 04:25:31;;;;;;;6.60;6.40;;;;;;;;;;5093285;28;20203;-63
2024/01/08 04:27:59;;;;;;;7.45;7.15;;;;;;;;;;5091312;28;20203;-64
2024/01/08 04:30:28;;;;;;;6.88;6.47;;;;;;;;;;5093604;28;20205;-64
2024/01/08 04:32:56;;;;;;;6.95;6.70;;;;;;;;;;5093625;28;20227;-64
2024/01/08 04:35:24;;;;;;;7.50;7.20;;;;;;;;;;5074006;28;20204;-64
2024/01/08 04:37:52;;;;;;;7.40;7.07;;;;;;;;;;5087925;28;20221;-64
2024/01/08 04:40:20;;;;;;;7.50;7.10;;;;;;;;;;5092716;28;20219;-64
2024/01/08 04:42:50;;;;;;;7.88;7.47;;;;;;;;;;5092748;28;20593;-64
2024/01/08 04:45:18;;;;;;;7.50;7.20;;;;;;;;;;5092568;28;20237;-64
2024/01/08 04:47:46;;;;;;;8.32;7.93;;;;;;;;;;5092063;28;20199;-64
2024/01/08 04:50:14;;;;;;;7.57;7.38;;;;;;;;;;5093279;28;20218;-64
2024/01/08 04:52:43;;;;;;;7.60;7.30;;;;;;;;;;5092231;28;20203;-64
2024/01/08 04:55:12;;;;;;;7.13;6.82;;;;;;;;;;5093173;28;20203;-66
2024/01/08 04:57:40;;;;;;;7.53;7.22;;;;;;;;;;5092852;28;20215;-65
2024/01/08 05:00:12;;;;;;;8.05;7.70;;;;;;;;;;5093186;28;20211;-64
2024/01/08 05:02:40;;;;;;;7.90;7.60;;;;;;;;;;5067467;28;20668;-66
2024/01/08 05:05:09;;;;;;;8.07;7.68;;;;;;;;;;5092175;28;20199;-64
2024/01/08 05:07:37;;;;;;;8.07;7.45;;;;;;;;;;5091950;28;20201;-64
2024/01/08 05:10:06;;;;;;;9.02;8.63;;;;;;;;;;5092754;28;20561;-64
2024/01/08 05:12:35;;;;;;;8.38;8.07;;;;;;;;;;5084160;28;20215;-64
2024/01/08 05:15:03;;;;;;;7.90;7.43;;;;;;;;;;5057242;28;20208;-64
2024/01/08 05:17:33;;;;;;;8.07;7.47;;;;;;;;;;5092246;28;20219;-65
2024/01/08 05:20:01;;;;;;;7.93;7.63;;;;;;;;;;5092815;28;20565;-64
2024/01/08 05:22:29;;;;;;;8.07;7.28;;;;;;;;;;5092205;28;20205;-64
2024/01/08 05:24:57;;;;;;;8.50;8.13;;;;;;;;;;5092578;28;20260;-64
2024/01/08 05:27:26;;;;;;;8.80;8.30;;;;;;;;;;5091246;28;20191;-65
2024/01/08 05:29:54;;;;;;;8.50;8.00;;;;;;;;;;5092512;28;20562;-64
2024/01/08 05:32:22;;;;;;;8.70;7.97;;;;;;;;;;5091620;28;20203;-64
2024/01/08 05:34:52;;;;;;;8.00;7.60;;;;;;;;;;5092409;28;20200;-64
2024/01/08 05:37:20;;;;;;;7.90;7.60;;;;;;;;;;5091684;28;20225;-64
2024/01/08 05:39:48;;;;;;;9.38;8.88;;;;;;;;;;5091837;28;20699;-64
2024/01/08 05:42:16;;;;;;;7.82;7.57;;;;;;;;;;5088196;28;20199;-64
2024/01/08 05:44:44;;;;;;;7.40;7.10;;;;;;;;;;5086110;28;20600;-64
2024/01/08 05:47:13;;;;;;;7.65;7.25;;;;;;;;;;5053794;28;20198;-65
2024/01/08 05:49:41;;;;;;;8.25;7.85;;;;;;;;;;5087683;28;20195;-67
2024/01/08 05:52:11;;;;;;;7.93;7.53;;;;;;;;;;5092156;28;20199;-64
2024/01/08 05:54:39;;;;;;;7.70;7.40;;;;;;;;;;5092085;28;20214;-64
2024/01/08 05:57:07;;;;;;;9.02;8.52;;;;;;;;;;5090702;28;20211;-64
2024/01/08 05:59:35;;;;;;;8.77;8.38;;;;;;;;;;5092358;28;20205;-64
2024/01/08 06:02:04;;;;;;;9.30;8.82;;;;;;;;;;5089985;28;20565;-65
2024/01/08 06:04:32;;;;;;;10.20;9.70;;;;;;;;;;5090062;28;20203;-64
2024/01/08 06:07:00;;;;;;;9.88;9.48;;;;;;;;;;5072001;28;20209;-64
2024/01/08 06:09:30;;;;;;;10.23;9.70;;;;;;;;;;5086424;28;20260;-65
2024/01/08 06:11:58;;;;;;;9.60;9.05;;;;;;;;;;5087357;28;20207;-65
2024/01/08 06:14:27;;;;;;;8.95;8.45;;;;;;;;;;5088434;28;20211;-64
2024/01/08 06:16:55;;;;;;;9.73;9.27;;;;;;;;;;5091560;28;20572;-65
2024/01/08 06:19:23;;;;;;;9.65;8.85;;;;;;;;;;5072902;28;20211;-65
2024/01/08 06:21:52;;;;;;;9.27;8.88;;;;;;;;;;5073875;28;20202;-66
2024/01/08 06:24:20;;;;;;;9.27;8.88;;;;;;;;;;5090577;28;20209;-64
2024/01/08 06:26:49;;;;;;;10.20;9.70;;;;;;;;;;5090696;28;20664;-65
2024/01/08 06:29:18;;;;;;;8.88;8.38;;;;;;;;;;5089264;28;20232;-64
2024/01/08 06:31:47;;;;;;;9.30;8.90;;;;;;;;;;5091065;28;20203;-64
2024/01/08 06:34:15;;;;;;;9.75;9.32;;;;;;;;;;5090674;28;20323;-64
2024/01/08 06:36:43;;;;;;;9.27;8.90;;;;;;;;;;5090640;28;20210;-65
2024/01/08 06:39:12;;;;;;;10.20;9.38;;;;;;;;;;5088593;28;20219;-65
2024/01/08 06:41:40;;;;;;;10.18;9.57;;;;;;;;;;5087545;28;20818;-63
2024/01/08 06:44:09;;;;;;;8.88;8.55;;;;;;;;;;5090450;28;20692;-63
2024/01/08 06:46:38;;;;;;;9.90;9.50;;;;;;;;;;5072966;28;20259;-63
2024/01/08 06:49:06;;;;;;;9.50;8.80;;;;;;;;;;5090921;28;20191;-63
2024/01/08 06:51:40;;;;;;;9.30;9.00;;;;;;;;;;5091528;28;20200;-63
2024/01/08 06:54:08;;;;;;;9.50;9.10;;;;;;;;;;5091358;28;20199;-64
2024/01/08 06:56:37;;;;;;;9.63;8.77;;;;;;;;;;5092595;28;20207;-63
2024/01/08 06:59:05;;;;;;;10.00;9.48;;;;;;;;;;5092293;28;20249;-63
2024/01/08 07:01:34;;;;;;;9.23;8.82;;;;;;;;;;5091675;28;20207;-65
2024/01/08 07:04:03;;;;;;;9.43;9.00;;;;;;;;;;5091878;28;20203;-64
2024/01/08 07:06:32;;;;;;;9.57;9.13;;;;;;;;;;5092987;28;20209;-64
2024/01/08 07:09:00;;;;;;;9.75;9.25;;;;;;;;;;5092996;28;20203;-63
2024/01/08 07:11:28;;;;;;;9.55;9.02;;;;;;;;;;5075701;28;20240;-63
2024/01/08 07:13:56;;;;;;;8.27;7.93;;;;;;;;;;5096154;28;20610;-65
2024/01/08 07:16:25;;;;;;;8.68;8.27;;;;;;;;;;5095939;28;20213;-64
2024/01/08 07:18:54;;;;;;;8.43;8.02;;;;;;;;;;5094245;28;20203;-66
2024/01/08 07:21:22;;;;;;;9.50;8.82;;;;;;;;;;5095016;28;20209;-63
2024/01/08 07:23:51;;;;;;;8.55;8.15;;;;;;;;;;5076568;28;20206;-67
2024/01/08 07:26:19;;;;;;;9.10;8.73;;;;;;;;;;5095869;28;20252;-64
2024/01/08 07:28:47;;;;;;;9.50;8.85;;;;;;;;;;5094829;28;20195;-65
2024/01/08 07:31:16;;;;;;;8.80;8.30;;;;;;;;;;5095081;28;20540;-63
2024/01/08 07:33:44;;;;;;;9.05;8.55;;;;;;;;;;5094401;28;20278;-64
2024/01/08 07:36:14;;;;;;;8.68;8.07;;;;;;;;;;5077317;28;20605;-64
2024/01/08 07:38:42;;;;;;;8.40;8.00;;;;;;;;;;5094569;28;20215;-64
2024/01/08 07:41:10;;;;;;;9.00;8.40;;;;;;;;;;5094437;28;20605;-66
2024/01/08 07:43:39;;;;;;;9.50;9.00;;;;;;;;;;5077147;28;20198;-64
2024/01/08 07:46:07;;;;;;;8.85;8.40;;;;;;;;;;5094559;28;20201;-64
2024/01/08 07:48:35;;;;;;;8.85;8.35;;;;;;;;;;5094704;28;20191;-65
2024/01/08 07:51:04;;;;;;;9.35;8.75;;;;;;;;;;5092451;28;20198;-64
2024/01/08 07:53:33;;;;;;;9.07;8.68;;;;;;;;;;5093920;28;20203;-64
2024/01/08 07:56:02;;;;;;;9.40;8.80;;;;;;;;;;5093917;28;20207;-64
2024/01/08 07:58:30;;;;;;;8.80;8.45;;;;;;;;;;5093713;28;20223;-65
2024/01/08 08:00:59;;;;;;;8.75;8.35;;;;;;;;;;5092808;28;20508;-64
2024/01/08 08:03:28;;;;;;;8.55;8.15;;;;;;;;;;5091523;28;20207;-65
2024/01/08 08:05:57;;;;;;;9.90;9.35;;;;;;;;;;5093561;28;20206;-64
2024/01/08 08:08:26;;;;;;;9.20;8.70;;;;;;;;;;5093148;28;20192;-65
2024/01/08 08:10:55;;;;;;;10.32;9.55;;;;;;;;;;5074194;28;20205;-65
2024/01/08 08:13:23;;;;;;;8.85;8.55;;;;;;;;;;5091297;28;20204;-66
2024/01/08 08:15:52;;;;;;;9.25;8.77;;;;;;;;;;5092242;28;20213;-65
2024/01/08 08:18:20;;;;;;;9.25;8.85;;;;;;;;;;5093120;28;20227;-65
2024/01/08 08:20:48;;;;;;;9.27;8.88;;;;;;;;;;5093793;28;20191;-66
2024/01/08 08:23:16;;;;;;;9.85;9.25;;;;;;;;;;5092321;28;20199;-64
2024/01/08 08:25:44;;;;;;;9.75;9.15;;;;;;;;;;5092551;28;20195;-65
2024/01/08 08:28:15;;;;;;;10.38;9.60;;;;;;;;;;5073705;28;20205;-64
2024/01/08 08:30:43;;;;;;;11.25;10.55;;;;;;;;;;5093406;28;20191;-64
2024/01/08 08:33:12;;;;;;;10.15;9.48;;;;;;;;;;5076485;28;20251;-64
2024/01/08 08:35:40;;;;;;;10.13;9.57;;;;;;;;;;5096007;28;20286;-63
2024/01/08 08:38:08;;;;;;;10.30;9.65;;;;;;;;;;5095582;28;20300;-65
2024/01/08 08:40:36;;;;;;;9.95;9.35;;;;;;;;;;5076565;28;20230;-65
2024/01/08 08:43:05;;;;;;;9.93;9.32;;;;;;;;;;5094248;28;20195;-64
2024/01/08 08:45:35;;;;;;;8.98;8.43;;;;;;;;;;5083162;28;20723;-64
2024/01/08 08:48:03;;;;;;;9.60;8.90;;;;;;;;;;5093225;28;20213;-64
2024/01/08 08:50:32;;;;;;;9.70;9.10;;;;;;;;;;5093323;28;20621;-65
2024/01/08 08:53:00;;;;;;;10.23;9.18;;;;;;;;;;5088559;28;20201;-65
2024/01/08 08:55:28;;;;;;;12.00;11.35;;;;;;;;;;5093672;28;20217;-64
2024/01/08 08:57:56;;;;;;;9.93;9.32;;;;;;;;;;5093326;28;20203;-64
2024/01/08 09:00:24;;;;;;;10.95;10.35;;;;;;;;;;5093817;28;20303;-65
2024/01/08 09:02:56;;;;;;;9.98;9.48;;;;;;;;;;5093639;28;20195;-63
2024/01/08 09:05:25;;;;;;;9.55;9.15;;;;;;;;;;5093721;28;20218;-65
2024/01/08 09:07:53;;;;;;;10.38;9.77;;;;;;;;;;5093119;28;20202;-65
2024/01/08 09:10:21;;;;;;;9.52;9.10;;;;;;;;;;5094422;28;20209;-65
2024/01/08 09:12:49;;;;;;;10.57;9.98;;;;;;;;;;5090604;28;20203;-65
2024/01/08 09:15:18;;;;;;;10.13;9.38;;;;;;;;;;5095327;28;20282;-64
2024/01/08 09:17:46;;;;;;;9.10;8.70;;;;;;;;;;5094300;28;20568;-63
2024/01/08 09:20:15;;;;;;;11.15;10.35;;;;;;;;;;5093917;28;20219;-65
2024/01/08 09:22:45;;;;;;;10.20;9.70;;;;;;;;;;5093243;28;20282;-64
2024/01/08 09:25:13;;;;;;;9.15;8.75;;;;;;;;;;5075700;28;20195;-64
2024/01/08 09:27:42;;;;;;;9.88;9.35;;;;;;;;;;5092923;28;20236;-67
2024/01/08 09:30:10;;;;;;;10.88;10.07;;;;;;;;;;5094919;28;20780;-66
2024/01/08 09:32:39;;;;;;;9.95;9.45;;;;;;;;;;5095374;28;20207;-65
2024/01/08 09:35:09;;;;;;;9.35;8.95;;;;;;;;;;5095627;28;20262;-66
2024/01/08 09:37:38;;;;;;;9.98;9.48;;;;;;;;;;5094355;28;20203;-65
2024/01/08 09:40:07;;;;;;;9.98;9.43;;;;;;;;;;5093279;28;20252;-64
2024/01/08 09:42:38;;;;;;;9.55;9.05;;;;;;;;;;5092882;28;20710;-66
2024/01/08 09:45:11;;;;;;;10.00;9.50;;;;;;;;;;5088365;28;20219;-65
2024/01/08 09:47:41;;;;;;;10.63;9.98;;;;;;;;;;5089808;28;20187;-65
2024/01/08 09:50:10;;;;;;;10.10;9.50;;;;;;;;;;5090735;28;20213;-66
2024/01/08 09:52:40;;;;;;;9.70;9.20;;;;;;;;;;5090786;28;20581;-66
2024/01/08 09:55:09;;;;;;;9.98;9.27;;;;;;;;;;5092000;28;20180;-66
2024/01/08 09:57:38;;;;;;;10.38;9.65;;;;;;;;;;5091497;28;20228;-68
2024/01/08 10:00:07;;;;;;;10.60;9.90;;;;;;;;;;5091771;28;20217;-66
2024/01/08 10:02:41;;;;;;;10.27;9.55;;;;;;;;;;5091667;28;20225;-65
2024/01/08 10:05:09;;;;;;;10.77;9.95;;;;;;;;;;5090534;28;20201;-66
2024/01/08 10:07:37;;;;;;;10.20;9.30;;;;;;;;;;5091717;28;20582;-66
2024/01/08 10:10:07;;;;;;;10.70;10.00;;;;;;;;;;5091607;28;20256;-65
2024/01/08 10:12:37;;;;;;;10.15;9.55;;;;;;;;;;5091862;28;20187;-66
2024/01/08 10:15:06;;;;;;;10.35;9.80;;;;;;;;;;5092233;28;20279;-66
2024/01/08 10:17:34;;;;;;;10.55;10.10;;;;;;;;;;5092409;28;20593;-66
2024/01/08 10:20:09;;;;;;;11.05;10.30;;;;;;;;;;5092608;28;20207;-66
2024/01/08 10:22:37;;;;;;;10.32;9.73;;;;;;;;;;5091927;28;20213;-66
2024/01/08 10:25:08;;;;;;;10.48;9.98;;;;;;;;;;5084430;28;20203;-66
2024/01/08 10:27:36;;;;;;;9.50;9.10;;;;;;;;;;5091964;28;20197;-67
2024/01/08 10:30:04;;;;;;;10.18;9.70;;;;;;;;;;5093453;28;20201;-65
2024/01/08 10:32:33;;;;;;;10.43;9.73;;;;;;;;;;5092800;28;20604;-66
2024/01/08 10:35:03;;;;;;;10.90;10.20;;;;;;;;;;5092915;28;20199;-66
2024/01/08 10:37:32;;;;;;;9.82;9.30;;;;;;;;;;5092848;28;20225;-65
2024/01/08 10:40:03;;;;;;;9.15;8.75;;;;;;;;;;5091619;28;20230;-65
2024/01/08 10:42:32;;;;;;;11.48;10.75;;;;;;;;;;5091083;28;20248;-64
2024/01/08 10:45:00;;;;;;;10.30;9.70;;;;;;;;;;5090899;28;20496;-64
2024/01/08 10:47:30;;;;;;;9.70;9.23;;;;;;;;;;5074163;28;20745;-64
2024/01/08 10:50:00;;;;;;;10.77;10.15;;;;;;;;;;5091964;28;20188;-63
2024/01/08 10:52:29;;;;;;;10.23;9.75;;;;;;;;;;5096449;28;20207;-64
2024/01/08 10:54:58;;;;;;;10.38;9.88;;;;;;;;;;5096244;28;20201;-65
2024/01/08 10:57:29;;;;;;;11.77;10.98;;;;;;;;;;5076451;28;20200;-64
2024/01/08 10:59:59;;;;;;;10.95;10.35;;;;;;;;;;5077532;28;20200;-64
2024/01/08 11:02:28;;;;;;;11.80;11.00;;;;;;;;;;5076702;28;20218;-64
2024/01/08 11:05:00;;;;;;;11.40;10.55;;;;;;;;;;5076645;28;20199;-65
2024/01/08 11:07:28;;;;;;;12.07;11.27;;;;;;;;;;5095118;28;20205;-67
2024/01/08 11:10:03;;;;;;;11.60;11.02;;;;;;;;;;5094960;28;20194;-65
2024/01/08 11:12:32;;;;;;;10.90;10.20;;;;;;;;;;5095541;28;20193;-64
2024/01/08 11:15:04;;;;;;;10.77;10.18;;;;;;;;;;5076791;28;20196;-64
2024/01/08 11:17:32;;;;;;;11.48;10.88;;;;;;;;;;5096178;28;20533;-63
2024/01/08 11:20:05;;;;;;;12.02;11.18;;;;;;;;;;5096881;28;20219;-63
2024/01/08 11:22:34;;;;;;;12.07;11.40;;;;;;;;;;5096107;28;20734;-64
2024/01/08 11:25:03;;;;;;;11.35;10.65;;;;;;;;;;5097030;28;20234;-64
2024/01/08 11:27:33;;;;;;;11.05;10.45;;;;;;;;;;5078690;28;20199;-65
2024/01/08 11:30:01;;;;;;;12.80;12.00;;;;;;;;;;5094323;28;20279;-64
2024/01/08 11:32:44;;;;;;;11.82;11.05;;;;;;;;;;5097772;28;20198;-65
2024/01/08 11:35:13;;;;;;;11.43;10.77;;;;;;;;;;5094755;28;20196;-66
2024/01/08 11:37:44;;;;;;;11.43;10.73;;;;;;;;;;5095654;28;20735;-66
2024/01/08 11:40:15;;;;;;;12.43;11.65;;;;;;;;;;5095005;28;20378;-65
2024/01/08 11:42:44;;;;;;;11.88;11.02;;;;;;;;;;5074887;28;20196;-65
2024/01/08 11:45:13;;;;;;;12.02;11.32;;;;;;;;;;5092481;28;20272;-65
2024/01/08 11:47:42;;;;;;;12.50;11.90;;;;;;;;;;5094002;28;20213;-65
2024/01/08 11:50:11;;;;;;;12.55;11.88;;;;;;;;;;5078034;28;20672;-68
2024/01/08 11:52:40;;;;;;;12.80;12.00;;;;;;;;;;5096827;28;20205;-64
2024/01/08 11:55:08;;;;;;;12.65;11.70;;;;;;;;;;5094918;28;20195;-65
2024/01/08 11:57:37;;;;;;;11.50;10.90;;;;;;;;;;5075173;28;20638;-64
2024/01/08 12:00:15;;;;;;;13.00;12.30;;;;;;;;;;5093355;28;20212;-65
2024/01/08 12:02:44;;;;;;;12.95;12.30;;;;;;;;;;5094172;28;20194;-65
2024/01/08 12:05:13;;;;;;;13.45;12.68;;;;;;;;;;5095409;28;20198;-65
2024/01/08 12:07:41;;;;;;;14.63;13.63;;;;;;;;;;5091942;28;20199;-69
2024/01/08 12:10:12;;;;;;;14.57;13.68;;;;;;;;;;5096292;28;20278;-65
2024/01/08 12:12:40;;;;;;;13.73;12.88;;;;;;;;;;5096047;28;20198;-65
2024/01/08 12:15:09;;;;;;;14.05;13.25;;;;;;;;;;5095512;28;20278;-65
2024/01/08 12:17:38;;;;;;;18.48;13.27;;;;;;;;;;5093252;28;20199;-65
2024/01/08 12:20:08;;;;;;;14.18;13.43;;;;;;;;;;5096114;28;20225;-65
2024/01/08 12:22:36;;;;;;;14.20;13.50;;;;;;;;;;5095438;28;20302;-66
2024/01/08 12:25:07;;;;;;;13.38;12.77;;;;;;;;;;5096545;28;20206;-64
2024/01/08 12:27:35;;;;;;;14.15;13.45;;;;;;;;;;5067687;28;20191;-66
2024/01/08 12:30:04;;;;;;;14.73;13.73;;;;;;;;;;5095377;28;20191;-65
2024/01/08 12:32:34;;;;;;;15.57;14.50;;;;;;;;;;5094094;28;20203;-65
2024/01/08 12:35:04;;;;;;;15.90;14.90;;;;;;;;;;5096150;28;20205;-65
2024/01/08 12:37:33;;;;;;;14.60;13.70;;;;;;;;;;5076838;28;20662;-66
2024/01/08 12:40:04;;;;;;;14.57;13.70;;;;;;;;;;5092359;28;20229;-65
2024/01/08 12:42:35;;;;;;;15.45;14.65;;;;;;;;;;5094269;28;20640;-65
2024/01/08 12:45:04;;;;;;;14.75;13.95;;;;;;;;;;5095379;28;20819;-64
2024/01/08 12:47:32;;;;;;;14.40;13.60;;;;;;;;;;5094271;28;20195;-64
2024/01/08 12:50:01;;;;;;;14.55;13.63;;;;;;;;;;5094639;28;20195;-64
2024/01/08 12:52:29;;;;;;;16.48;15.38;;;;;;;;;;5093537;28;20566;-67
2024/01/08 12:54:58;;;;;;;15.52;14.20;;;;;;;;;;5094018;28;20201;-65
2024/01/08 12:57:30;;;;;;;13.85;13.10;;;;;;;;;;5095120;28;20291;-65
2024/01/08 12:59:58;;;;;;;16.67;15.38;;;;;;;;;;5076499;28;20191;-64
2024/01/08 13:02:30;;;;;;;15.57;14.30;;;;;;;;;;5093540;28;20286;-64
2024/01/08 13:04:58;;;;;;;15.82;14.65;;;;;;;;;;5095326;28;20210;-66
2024/01/08 13:07:27;;;;;;;16.67;15.07;;;;;;;;;;5096059;28;20209;-66
2024/01/08 13:09:55;;;;;;;14.82;13.70;;;;;;;;;;5096663;28;20620;-65
2024/01/08 13:12:25;;;;;;;15.50;14.60;;;;;;;;;;5096615;28;20353;-65
2024/01/08 13:14:53;;;;;;;13.65;12.85;;;;;;;;;;5093568;28;20248;-64
2024/01/08 13:17:21;;;;;;;14.95;14.05;;;;;;;;;;5093246;28;20941;-64
2024/01/08 13:19:49;;;;;;;14.38;13.35;;;;;;;;;;5090441;28;20211;-66
2024/01/08 13:22:18;;;;;;;15.55;14.25;;;;;;;;;;5091584;28;20215;-65
2024/01/08 13:24:46;;;;;;;14.50;13.55;;;;;;;;;;5089722;28;20210;-65
2024/01/08 13:27:14;;;;;;;15.10;14.20;;;;;;;;;;5093245;28;20574;-64
2024/01/08 13:29:44;;;;;;;14.32;13.48;;;;;;;;;;5094461;28;20923;-66
2024/01/08 13:32:15;;;;;;;15.38;14.35;;;;;;;;;;5088887;28;20199;-66
2024/01/08 13:34:43;;;;;;;15.65;14.27;;;;;;;;;;5093698;28;20193;-64
2024/01/08 13:37:11;;;;;;;14.95;13.95;;;;;;;;;;5093831;28;20203;-66
2024/01/08 13:39:40;;;;;;;15.15;14.05;;;;;;;;;;5093825;28;20217;-65
2024/01/08 13:42:09;;;;;;;15.50;14.50;;;;;;;;;;5073494;28;20694;-65
2024/01/08 13:44:37;;;;;;;15.85;14.40;;;;;;;;;;5093370;28;20215;-63
2024/01/08 13:47:07;;;;;;;17.00;15.60;;;;;;;;;;5093621;28;20628;-65
2024/01/08 13:49:35;;;;;;;14.95;13.95;;;;;;;;;;5075418;28;20205;-64
2024/01/08 13:52:04;;;;;;;15.48;14.38;;;;;;;;;;5076602;28;20197;-64
2024/01/08 13:54:32;;;;;;;14.35;13.27;;;;;;;;;;5094666;28;20195;-65
2024/01/08 13:57:00;;;;;;;15.77;14.75;;;;;;;;;;5095455;28;20342;-64
2024/01/08 13:59:28;;;;;;;14.98;13.98;;;;;;;;;;5093895;28;20732;-65
2024/01/08 14:01:57;;;;;;;15.63;14.13;;;;;;;;;;5092707;28;20211;-65
2024/01/08 14:04:26;;;;;;;14.45;13.55;;;;;;;;;;5088291;28;20209;-66
2024/01/08 14:06:54;;;;;;;13.10;12.40;;;;;;;;;;5093052;28;20725;-65
2024/01/08 14:09:23;;;;;;;14.43;13.35;;;;;;;;;;5094416;28;20638;-64
2024/01/08 14:11:51;;;;;;;14.30;13.30;;;;;;;;;;5094106;28;20203;-66
2024/01/08 14:14:19;;;;;;;14.88;13.73;;;;;;;;;;5093791;28;20710;-65
2024/01/08 14:16:47;;;;;;;13.95;13.07;;;;;;;;;;5093329;28;20210;-67
2024/01/08 14:19:15;;;;;;;14.85;13.50;;;;;;;;;;5079661;28;20214;-64
2024/01/08 14:21:46;;;;;;;14.60;13.70;;;;;;;;;;5088681;28;20215;-64
2024/01/08 14:24:14;;;;;;;14.23;13.35;;;;;;;;;;5093974;28;20187;-64
2024/01/08 14:26:42;;;;;;;14.20;13.40;;;;;;;;;;5094195;28;20284;-63
2024/01/08 14:29:10;;;;;;;14.93;13.80;;;;;;;;;;5075788;28;20207;-64
2024/01/08 14:31:38;;;;;;;16.48;15.18;;;;;;;;;;5093284;28;20201;-64
2024/01/08 14:34:07;;;;;;;15.00;14.07;;;;;;;;;;5093568;28;20196;-64
2024/01/08 14:36:35;;;;;;;15.75;14.82;;;;;;;;;;5092880;28;20700;-64
2024/01/08 14:39:05;;;;;;;15.23;14.23;;;;;;;;;;5094071;28;20282;-64
2024/01/08 14:41:33;;;;;;;15.45;14.55;;;;;;;;;;5075974;28;20237;-65